Weather at Manchester Airport

Public forecast

Using degrees Celsius for public forecast. Weather courtesy of forecast.io.

Current aviation weather report (METAR) for Manchester Airport

Retrieved 2021/10/27 08:20 UTC (35 minutes ago):

EGCC 270820Z AUTO 21010KT 170V240 9999 FEW024 BKN034 15/12 Q1012 NOSIG

Aviation forecast (TAF) for Manchester Airport

Retrieved 2021/10/27 06:29 UTC (2 hours ago):

TAF COR EGCC 270525Z 2706/2812 19012KT 9999 SCT020 PROB30 TEMPO 2706/2724 8000 -RA PROB30 TEMPO 2706/2710 20015G25KT PROB40 TEMPO 2710/2812 20018G28KT PROB40 TEMPO 2808/2812 6000 -RADZ BKN014